createdAt,value
2019-05-22T00:00:16.051Z,0.00
2019-05-22T00:01:16.032Z,0.00
2019-05-22T00:02:16.028Z,0.00
2019-05-22T00:03:16.021Z,0.00
2019-05-22T00:04:16.023Z,0.00
2019-05-22T00:05:16.012Z,0.00
2019-05-22T00:06:15.992Z,0.00
2019-05-22T00:07:16.003Z,0.00
2019-05-22T00:08:15.986Z,0.00
2019-05-22T00:09:15.976Z,0.00
2019-05-22T00:10:15.969Z,0.00
2019-05-22T00:11:15.967Z,0.00
2019-05-22T00:12:15.954Z,0.00
2019-05-22T00:13:15.945Z,0.00
2019-05-22T00:14:15.943Z,0.00
2019-05-22T00:15:16.092Z,0.00
2019-05-22T00:16:15.928Z,0.00
2019-05-22T00:17:15.915Z,0.00
2019-05-22T00:18:15.906Z,0.00
2019-05-22T00:19:15.902Z,0.00
2019-05-22T00:20:15.899Z,0.00
2019-05-22T00:21:15.903Z,0.00
2019-05-22T00:22:15.902Z,0.00
2019-05-22T00:23:15.889Z,0.00
2019-05-22T00:24:15.884Z,0.00
2019-05-22T00:25:15.910Z,0.00
2019-05-22T00:26:15.884Z,0.00
2019-05-22T00:27:15.879Z,0.00
2019-05-22T00:28:15.870Z,0.00
2019-05-22T00:29:15.864Z,0.00
2019-05-22T00:30:15.857Z,0.00
2019-05-22T00:31:15.849Z,0.00
2019-05-22T00:32:15.928Z,0.00
2019-05-22T00:33:15.836Z,0.00
2019-05-22T00:34:15.821Z,0.00
2019-05-22T00:35:15.811Z,0.00
2019-05-22T00:36:15.802Z,0.00
2019-05-22T00:37:15.799Z,0.00
2019-05-22T00:38:15.799Z,0.00
2019-05-22T00:39:15.784Z,0.00
2019-05-22T00:40:15.779Z,0.00
2019-05-22T00:41:15.769Z,0.00
2019-05-22T00:42:15.762Z,0.00
2019-05-22T00:43:15.768Z,0.00
2019-05-22T00:44:15.746Z,0.00
2019-05-22T00:45:15.742Z,0.00
2019-05-22T00:46:15.729Z,0.00
2019-05-22T00:47:15.727Z,0.00
2019-05-22T00:48:15.714Z,0.00
2019-05-22T00:49:15.708Z,0.00
2019-05-22T00:50:15.697Z,0.00
2019-05-22T00:51:15.686Z,0.00
2019-05-22T00:52:15.683Z,0.00
2019-05-22T00:53:15.674Z,0.00
2019-05-22T00:54:15.675Z,0.00
2019-05-22T00:55:15.664Z,0.00
2019-05-22T00:56:15.653Z,0.00
2019-05-22T00:57:15.642Z,0.00
2019-05-22T00:58:15.639Z,0.00
2019-05-22T00:59:15.630Z,0.00
2019-05-22T01:00:15.622Z,0.00
2019-05-22T01:01:15.608Z,0.00
2019-05-22T01:02:15.623Z,0.00
2019-05-22T01:03:15.615Z,0.00
2019-05-22T01:04:15.609Z,0.00
2019-05-22T01:05:15.614Z,0.00
2019-05-22T01:06:15.591Z,0.00
2019-05-22T01:07:15.582Z,0.00
2019-05-22T01:08:15.591Z,0.00
2019-05-22T01:09:15.592Z,0.00
2019-05-22T01:10:15.578Z,0.00
2019-05-22T01:11:15.583Z,0.00
2019-05-22T01:12:15.567Z,0.00
2019-05-22T01:13:15.560Z,0.00
2019-05-22T01:14:15.570Z,0.00
2019-05-22T01:15:15.565Z,0.00
2019-05-22T01:16:15.564Z,0.00
2019-05-22T01:17:15.552Z,0.00
2019-05-22T01:18:15.540Z,0.00
2019-05-22T01:19:15.536Z,0.00
2019-05-22T01:20:15.524Z,0.00
2019-05-22T01:21:15.528Z,0.00
2019-05-22T01:22:15.510Z,0.00
2019-05-22T01:23:15.502Z,0.00
2019-05-22T01:24:15.492Z,0.00
2019-05-22T01:25:15.483Z,0.00
2019-05-22T01:26:15.498Z,0.00
2019-05-22T01:27:15.485Z,0.00
2019-05-22T01:28:15.496Z,0.00
2019-05-22T01:29:15.484Z,0.00
2019-05-22T01:30:15.485Z,0.00
2019-05-22T01:31:15.520Z,0.00
2019-05-22T01:32:15.471Z,0.00
2019-05-22T01:33:15.454Z,0.00
2019-05-22T01:34:15.449Z,0.00
2019-05-22T01:35:15.449Z,0.00
2019-05-22T01:36:15.443Z,0.00
2019-05-22T01:37:15.447Z,0.00
2019-05-22T01:38:15.433Z,0.00
2019-05-22T01:39:15.477Z,0.00
2019-05-22T01:40:15.414Z,0.00
2019-05-22T01:41:15.407Z,0.00
2019-05-22T01:42:15.612Z,0.00
2019-05-22T01:43:15.388Z,0.00
2019-05-22T01:44:15.392Z,0.00
2019-05-22T01:45:15.388Z,0.00
2019-05-22T01:46:15.382Z,0.00
2019-05-22T01:47:15.373Z,0.00
2019-05-22T01:48:15.389Z,0.00
2019-05-22T01:49:15.367Z,0.00
2019-05-22T01:50:15.358Z,0.00
2019-05-22T01:51:15.356Z,0.00
2019-05-22T01:52:15.338Z,0.00
2019-05-22T01:53:15.336Z,0.00
2019-05-22T01:54:15.320Z,0.00
2019-05-22T01:55:15.322Z,0.00
2019-05-22T01:56:15.317Z,0.00
2019-05-22T01:57:15.300Z,0.00
2019-05-22T01:58:15.291Z,0.00
2019-05-22T01:59:15.288Z,0.00
2019-05-22T02:00:15.274Z,0.00
2019-05-22T02:01:15.271Z,0.00
2019-05-22T02:02:15.257Z,0.00
2019-05-22T02:03:15.247Z,0.00
2019-05-22T02:04:15.264Z,0.00
2019-05-22T02:05:15.240Z,0.00
2019-05-22T02:06:15.226Z,0.00
2019-05-22T02:07:15.217Z,0.00
2019-05-22T02:08:15.208Z,0.00
2019-05-22T02:09:15.198Z,0.00
2019-05-22T02:10:15.201Z,0.00
2019-05-22T02:11:15.184Z,0.00
2019-05-22T02:12:15.176Z,0.00
2019-05-22T02:13:15.169Z,0.00
2019-05-22T02:14:15.159Z,0.00
2019-05-22T02:15:15.154Z,0.00
2019-05-22T02:16:15.167Z,0.00
2019-05-22T02:17:15.157Z,0.00
2019-05-22T02:18:15.147Z,0.00
2019-05-22T02:19:15.140Z,0.00
2019-05-22T02:20:15.141Z,0.00
2019-05-22T02:21:15.138Z,0.00
2019-05-22T02:22:15.129Z,0.00
2019-05-22T02:23:15.126Z,0.00
2019-05-22T02:24:15.123Z,0.00
2019-05-22T02:25:15.123Z,0.00
2019-05-22T02:26:15.103Z,0.00
2019-05-22T02:27:15.101Z,0.00
2019-05-22T02:28:15.100Z,0.00
2019-05-22T02:29:15.094Z,0.00
2019-05-22T02:30:15.087Z,0.00
2019-05-22T02:31:15.092Z,0.00
2019-05-22T02:32:15.071Z,0.00
2019-05-22T02:33:15.066Z,0.00
2019-05-22T02:34:15.097Z,0.00
2019-05-22T02:35:15.047Z,0.00
2019-05-22T02:36:15.049Z,0.00
2019-05-22T02:37:15.054Z,0.00
2019-05-22T02:38:15.047Z,0.00
2019-05-22T02:39:15.039Z,0.00
2019-05-22T02:40:15.038Z,0.00
2019-05-22T02:41:15.037Z,0.00
2019-05-22T02:42:15.045Z,0.00
2019-05-22T02:43:15.003Z,0.00
2019-05-22T02:44:14.994Z,0.00
2019-05-22T02:45:14.985Z,0.00
2019-05-22T02:46:14.981Z,0.00
2019-05-22T02:47:19.834Z,0.00
2019-05-22T02:48:15.964Z,0.00
2019-05-22T02:49:14.953Z,0.00
2019-05-22T02:50:14.961Z,0.00
2019-05-22T02:51:14.941Z,0.00
2019-05-22T02:52:14.938Z,0.00
2019-05-22T02:53:14.956Z,0.00
2019-05-22T02:54:14.909Z,0.00
2019-05-22T02:55:14.919Z,0.00
2019-05-22T02:56:14.915Z,0.00
2019-05-22T02:57:14.914Z,0.00
2019-05-22T02:58:14.906Z,0.00
2019-05-22T02:59:14.888Z,0.00
2019-05-22T03:00:14.885Z,0.00
2019-05-22T03:01:14.874Z,0.00
2019-05-22T03:02:14.877Z,0.00
2019-05-22T03:03:14.858Z,0.00
2019-05-22T03:04:14.861Z,0.00
2019-05-22T03:05:14.841Z,0.00
2019-05-22T03:06:14.837Z,0.00
2019-05-22T03:07:14.831Z,0.00
2019-05-22T03:08:14.823Z,0.00
2019-05-22T03:09:14.899Z,0.00
2019-05-22T03:10:14.806Z,0.00
2019-05-22T03:11:14.798Z,0.00
2019-05-22T03:12:14.801Z,0.00
2019-05-22T03:13:14.798Z,0.00
2019-05-22T03:14:14.812Z,0.00
2019-05-22T03:15:14.796Z,0.00
2019-05-22T03:16:14.792Z,0.00
2019-05-22T03:17:14.779Z,0.00
2019-05-22T03:18:14.773Z,0.00
2019-05-22T03:19:14.775Z,0.00
2019-05-22T03:20:14.784Z,0.00
2019-05-22T03:21:14.784Z,0.00
2019-05-22T03:22:14.773Z,0.00
2019-05-22T03:23:14.785Z,0.00
2019-05-22T03:24:14.781Z,0.00
2019-05-22T03:25:14.774Z,0.00
2019-05-22T03:26:14.781Z,0.00
2019-05-22T03:27:14.758Z,0.00
2019-05-22T03:28:14.752Z,0.00
2019-05-22T03:29:14.747Z,0.00
2019-05-22T03:30:14.751Z,0.00
2019-05-22T03:31:14.747Z,0.00
2019-05-22T03:32:14.740Z,0.00
2019-05-22T03:33:14.743Z,0.00
2019-05-22T03:34:14.721Z,0.00
2019-05-22T03:35:14.731Z,0.00
2019-05-22T03:36:14.702Z,0.00
2019-05-22T03:37:14.764Z,0.00
2019-05-22T03:38:14.691Z,0.00
2019-05-22T03:39:14.687Z,0.00
2019-05-22T03:40:14.681Z,0.00
2019-05-22T03:41:14.674Z,0.00
2019-05-22T03:42:14.669Z,0.00
2019-05-22T03:43:14.671Z,0.00
2019-05-22T03:44:14.653Z,0.00
2019-05-22T03:45:14.653Z,0.00
2019-05-22T03:46:14.649Z,0.00
2019-05-22T03:47:14.635Z,0.00
2019-05-22T03:48:14.639Z,0.00
2019-05-22T03:49:29.292Z,0.00
2019-05-22T03:50:15.613Z,0.00
2019-05-22T03:51:14.646Z,0.00
2019-05-22T03:52:14.617Z,4.00
2019-05-22T03:53:14.626Z,4.00
2019-05-22T03:54:14.604Z,4.00
2019-05-22T03:55:14.593Z,4.00
2019-05-22T03:56:14.607Z,4.00
2019-05-22T03:57:14.607Z,0.00
2019-05-22T03:58:14.586Z,0.00
2019-05-22T03:59:14.588Z,4.00
2019-05-22T04:00:14.563Z,4.00
2019-05-22T04:01:14.559Z,4.00
2019-05-22T04:02:14.574Z,4.00
2019-05-22T04:03:14.559Z,0.00
2019-05-22T04:04:14.557Z,0.00
2019-05-22T04:05:14.542Z,0.00
2019-05-22T04:06:14.546Z,4.00
2019-05-22T04:07:14.535Z,4.00
2019-05-22T04:08:14.532Z,4.00
2019-05-22T04:09:14.507Z,4.00
2019-05-22T04:10:14.507Z,4.00
2019-05-22T04:11:14.491Z,4.00
2019-05-22T04:12:14.488Z,4.00
2019-05-22T04:13:14.512Z,4.00
2019-05-22T04:14:14.494Z,4.00
2019-05-22T04:15:14.593Z,4.00
2019-05-22T04:16:14.499Z,4.00
2019-05-22T04:17:14.489Z,4.00
2019-05-22T04:18:14.492Z,4.00
2019-05-22T04:19:14.475Z,4.00
2019-05-22T04:20:14.466Z,4.00
2019-05-22T04:21:14.484Z,4.00
2019-05-22T04:22:14.466Z,4.00
2019-05-22T04:23:14.447Z,4.00
2019-05-22T04:24:14.442Z,4.00
2019-05-22T04:25:14.430Z,4.00
2019-05-22T04:26:14.434Z,4.00
2019-05-22T04:27:14.419Z,4.00
2019-05-22T04:28:14.411Z,4.00
2019-05-22T04:29:14.404Z,8.00
2019-05-22T04:30:14.408Z,4.00
2019-05-22T04:31:14.400Z,4.00
2019-05-22T04:32:14.384Z,4.00
2019-05-22T04:33:14.374Z,4.00
2019-05-22T04:34:14.357Z,4.00
2019-05-22T04:35:14.362Z,4.00
2019-05-22T04:36:14.354Z,4.00
2019-05-22T04:37:14.387Z,4.00
2019-05-22T04:38:14.369Z,4.00
2019-05-22T04:39:14.361Z,8.00
2019-05-22T04:40:14.351Z,8.00
2019-05-22T04:41:14.346Z,8.00
2019-05-22T04:42:14.337Z,8.00
2019-05-22T04:43:14.353Z,8.00
2019-05-22T04:44:14.332Z,8.00
2019-05-22T04:45:14.317Z,8.00
2019-05-22T04:46:14.311Z,8.00
2019-05-22T04:47:14.305Z,4.00
2019-05-22T04:48:14.390Z,8.00
2019-05-22T04:49:14.300Z,8.00
2019-05-22T04:50:14.271Z,8.00
2019-05-22T04:51:14.279Z,8.00
2019-05-22T04:52:14.251Z,8.00
2019-05-22T04:53:14.253Z,8.00
2019-05-22T04:54:14.252Z,8.00
2019-05-22T04:55:14.234Z,8.00
2019-05-22T04:56:14.224Z,8.00
2019-05-22T04:57:14.229Z,8.00
2019-05-22T04:58:14.215Z,8.00
2019-05-22T04:59:14.284Z,12.00
2019-05-22T05:00:14.191Z,8.00
2019-05-22T05:01:14.187Z,12.00
2019-05-22T05:02:14.176Z,8.00
2019-05-22T05:03:14.172Z,8.00
2019-05-22T05:04:14.158Z,12.00
2019-05-22T05:05:14.161Z,12.00
2019-05-22T05:06:14.182Z,12.00
2019-05-22T05:07:14.131Z,12.00
2019-05-22T05:08:14.133Z,12.00
2019-05-22T05:09:14.131Z,12.00
2019-05-22T05:10:14.120Z,12.00
2019-05-22T05:11:14.103Z,12.00
2019-05-22T05:12:14.094Z,12.00
2019-05-22T05:13:14.088Z,12.00
2019-05-22T05:14:14.083Z,12.00
2019-05-22T05:15:14.072Z,12.00
2019-05-22T05:16:14.070Z,16.00
2019-05-22T05:17:14.059Z,12.00
2019-05-22T05:18:14.053Z,12.00
2019-05-22T05:19:14.037Z,16.00
2019-05-22T05:20:22.173Z,16.00
2019-05-22T05:21:15.029Z,16.00
2019-05-22T05:22:14.035Z,16.00
2019-05-22T05:23:14.065Z,16.00
2019-05-22T05:24:14.041Z,16.00
2019-05-22T05:25:14.029Z,16.00
2019-05-22T05:26:14.018Z,20.00
2019-05-22T05:27:14.080Z,20.00
2019-05-22T05:28:14.001Z,20.00
2019-05-22T05:29:13.996Z,24.00
2019-05-22T05:30:14.000Z,28.00
2019-05-22T05:31:13.979Z,28.00
2019-05-22T05:32:13.995Z,24.00
2019-05-22T05:33:14.000Z,24.00
2019-05-22T05:34:13.962Z,28.00
2019-05-22T05:35:13.949Z,28.00
2019-05-22T05:36:13.940Z,32.00
2019-05-22T05:37:13.944Z,32.00
2019-05-22T05:38:13.932Z,32.00
2019-05-22T05:39:13.916Z,36.00
2019-05-22T05:40:13.909Z,36.00
2019-05-22T05:41:13.903Z,40.00
2019-05-22T05:42:13.899Z,40.00
2019-05-22T05:43:13.887Z,40.00
2019-05-22T05:44:13.877Z,44.00
2019-05-22T05:45:13.964Z,44.00
2019-05-22T05:46:13.877Z,44.00
2019-05-22T05:47:13.854Z,48.00
2019-05-22T05:48:13.843Z,48.00
2019-05-22T05:49:13.846Z,48.00
2019-05-22T05:50:13.869Z,44.00
2019-05-22T05:51:13.827Z,48.00
2019-05-22T05:52:13.838Z,48.00
2019-05-22T05:53:13.821Z,44.00
2019-05-22T05:54:13.821Z,48.00
2019-05-22T05:55:13.809Z,48.00
2019-05-22T05:56:13.820Z,48.00
2019-05-22T05:57:13.794Z,48.00
2019-05-22T05:58:13.786Z,48.00
2019-05-22T05:59:13.785Z,40.00
2019-05-22T06:00:13.766Z,40.00
2019-05-22T06:01:13.787Z,40.00
2019-05-22T06:02:13.779Z,40.00
2019-05-22T06:03:13.765Z,44.00
2019-05-22T06:04:13.761Z,40.00
2019-05-22T06:05:13.765Z,44.00
2019-05-22T06:06:13.757Z,44.00
2019-05-22T06:07:13.767Z,48.00
2019-05-22T06:08:13.737Z,48.00
2019-05-22T06:09:13.730Z,52.00
2019-05-22T06:10:13.739Z,52.00
2019-05-22T06:11:13.722Z,56.00
2019-05-22T06:12:13.715Z,52.00
2019-05-22T06:13:13.731Z,52.00
2019-05-22T06:14:13.688Z,56.00
2019-05-22T06:15:13.689Z,56.00
2019-05-22T06:16:13.688Z,56.00
2019-05-22T06:17:13.684Z,60.00
2019-05-22T06:18:13.659Z,64.00
2019-05-22T06:19:13.667Z,72.00
2019-05-22T06:20:13.640Z,72.00
2019-05-22T06:21:13.636Z,72.00
2019-05-22T06:22:13.623Z,72.00
2019-05-22T06:23:13.618Z,68.00
2019-05-22T06:24:13.611Z,64.00
2019-05-22T06:25:13.711Z,60.00
2019-05-22T06:26:13.596Z,56.00
2019-05-22T06:27:13.587Z,52.00
2019-05-22T06:28:13.588Z,48.00
2019-05-22T06:29:13.581Z,48.00
2019-05-22T06:30:13.559Z,48.00
2019-05-22T06:31:13.556Z,48.00
2019-05-22T06:32:13.579Z,48.00
2019-05-22T06:33:13.623Z,44.00
2019-05-22T06:34:13.536Z,44.00
2019-05-22T06:35:13.571Z,48.00
2019-05-22T06:36:13.521Z,52.00
2019-05-22T06:37:13.529Z,52.00
2019-05-22T06:38:13.540Z,60.00
2019-05-22T06:39:13.528Z,64.00
2019-05-22T06:40:13.507Z,68.00
2019-05-22T06:41:13.501Z,76.00
2019-05-22T06:42:13.493Z,76.00
2019-05-22T06:43:13.501Z,80.00
2019-05-22T06:44:13.479Z,84.00
2019-05-22T06:45:13.471Z,84.00
2019-05-22T06:46:13.486Z,88.00
2019-05-22T06:47:13.467Z,88.00
2019-05-22T06:48:13.445Z,88.00
2019-05-22T06:49:13.441Z,88.00
2019-05-22T06:50:13.427Z,92.00
2019-05-22T06:51:19.395Z,92.00
2019-05-22T06:52:14.407Z,96.00
2019-05-22T06:53:13.407Z,100.00
2019-05-22T06:54:13.403Z,100.00
2019-05-22T06:55:13.405Z,96.00
2019-05-22T06:56:13.389Z,96.00
2019-05-22T06:57:13.455Z,92.00
2019-05-22T06:58:13.373Z,96.00
2019-05-22T06:59:13.515Z,100.00
2019-05-22T07:00:17.867Z,108.00
2019-05-22T07:01:13.366Z,112.00
2019-05-22T07:02:13.414Z,112.00
2019-05-22T07:03:13.337Z,116.00
2019-05-22T07:04:13.329Z,116.00
2019-05-22T07:05:13.349Z,116.00
2019-05-22T07:06:13.323Z,120.00
2019-05-22T07:07:13.316Z,124.00
2019-05-22T07:08:13.302Z,124.00
2019-05-22T07:09:13.290Z,124.00
2019-05-22T07:10:13.375Z,124.00
2019-05-22T07:11:13.288Z,120.00
2019-05-22T07:12:13.269Z,120.00
2019-05-22T07:13:13.260Z,128.00
2019-05-22T07:14:13.284Z,132.00
2019-05-22T07:15:13.248Z,136.00
2019-05-22T07:16:13.261Z,140.00
2019-05-22T07:17:13.238Z,136.00
2019-05-22T07:18:13.614Z,136.00
2019-05-22T07:19:13.212Z,128.00
2019-05-22T07:20:13.276Z,128.00
2019-05-22T07:21:13.225Z,124.00
2019-05-22T07:22:13.197Z,128.00
2019-05-22T07:23:13.191Z,128.00
2019-05-22T07:24:13.203Z,124.00
2019-05-22T07:25:13.172Z,120.00
2019-05-22T07:26:13.175Z,112.00
2019-05-22T07:27:13.193Z,112.00
2019-05-22T07:28:13.168Z,108.00
2019-05-22T07:29:13.169Z,108.00
2019-05-22T07:30:13.148Z,108.00
2019-05-22T07:31:13.222Z,112.00
2019-05-22T07:32:13.241Z,104.00
2019-05-22T07:33:13.162Z,104.00
2019-05-22T07:34:13.139Z,100.00
2019-05-22T07:35:13.141Z,96.00
2019-05-22T07:36:16.751Z,100.00
2019-05-22T07:37:13.097Z,104.00
2019-05-22T07:38:13.095Z,104.00
2019-05-22T07:39:13.083Z,104.00
2019-05-22T07:40:13.078Z,104.00
2019-05-22T07:41:13.071Z,108.00
2019-05-22T07:42:13.060Z,116.00
2019-05-22T07:43:13.073Z,116.00
2019-05-22T07:44:13.075Z,112.00
2019-05-22T07:45:13.061Z,112.00
2019-05-22T07:46:13.064Z,108.00
2019-05-22T07:47:13.039Z,108.00
2019-05-22T07:48:13.759Z,100.00
2019-05-22T07:49:13.037Z,100.00
2019-05-22T07:50:13.017Z,96.00
2019-05-22T07:51:13.010Z,96.00
2019-05-22T07:52:13.003Z,84.00
2019-05-22T07:53:12.996Z,84.00
2019-05-22T07:54:12.990Z,80.00
2019-05-22T07:55:12.979Z,80.00
2019-05-22T07:56:13.008Z,80.00
2019-05-22T07:57:12.971Z,80.00
2019-05-22T07:58:12.959Z,84.00
2019-05-22T07:59:12.971Z,88.00
2019-05-22T08:00:12.938Z,92.00
2019-05-22T08:01:12.931Z,96.00
2019-05-22T08:02:12.924Z,100.00
2019-05-22T08:03:12.917Z,104.00
2019-05-22T08:04:12.910Z,108.00
2019-05-22T08:05:12.924Z,116.00
2019-05-22T08:06:12.891Z,120.00
2019-05-22T08:07:12.885Z,132.00
2019-05-22T08:08:12.882Z,148.00
2019-05-22T08:09:12.874Z,168.00
2019-05-22T08:10:12.873Z,200.00
2019-05-22T08:11:12.859Z,216.00
2019-05-22T08:12:12.873Z,216.00
2019-05-22T08:13:12.865Z,216.00
2019-05-22T08:14:12.855Z,208.00
2019-05-22T08:15:12.862Z,200.00
2019-05-22T08:16:12.843Z,188.00
2019-05-22T08:17:12.831Z,180.00
2019-05-22T08:18:12.847Z,180.00
2019-05-22T08:19:12.830Z,180.00
2019-05-22T08:20:12.812Z,176.00
2019-05-22T08:21:12.813Z,172.00
2019-05-22T08:22:12.800Z,168.00
2019-05-22T08:23:12.789Z,168.00
2019-05-22T08:24:12.819Z,164.00
2019-05-22T08:25:12.766Z,156.00
2019-05-22T08:26:12.780Z,152.00
2019-05-22T08:27:12.772Z,140.00
2019-05-22T08:28:12.765Z,136.00
2019-05-22T08:29:12.758Z,124.00
2019-05-22T08:30:12.743Z,120.00
2019-05-22T08:31:12.736Z,112.00
2019-05-22T08:32:12.732Z,104.00
2019-05-22T08:33:12.726Z,96.00
2019-05-22T08:34:12.720Z,92.00
2019-05-22T08:35:12.713Z,88.00
2019-05-22T08:36:12.806Z,88.00
2019-05-22T08:37:12.695Z,92.00
2019-05-22T08:38:12.690Z,92.00
2019-05-22T08:39:12.677Z,100.00
2019-05-22T08:40:12.710Z,100.00
2019-05-22T08:41:12.704Z,108.00
2019-05-22T08:42:12.698Z,108.00
2019-05-22T08:43:12.799Z,116.00
2019-05-22T08:44:16.553Z,116.00
2019-05-22T08:45:12.666Z,112.00
2019-05-22T08:46:12.679Z,108.00
2019-05-22T08:47:12.660Z,108.00
2019-05-22T08:48:12.669Z,108.00
2019-05-22T08:49:12.729Z,112.00
2019-05-22T08:50:12.653Z,112.00
2019-05-22T08:51:12.656Z,112.00
2019-05-22T08:52:23.127Z,112.00
2019-05-22T08:53:13.630Z,108.00
2019-05-22T08:54:12.628Z,108.00
2019-05-22T08:55:12.611Z,104.00
2019-05-22T08:56:12.605Z,104.00
2019-05-22T08:57:12.598Z,112.00
2019-05-22T08:58:12.639Z,116.00
2019-05-22T08:59:19.435Z,124.00
2019-05-22T09:00:13.581Z,128.00
2019-05-22T09:01:12.592Z,132.00
2019-05-22T09:02:12.557Z,140.00
2019-05-22T09:03:12.564Z,148.00
2019-05-22T09:04:12.681Z,152.00
2019-05-22T09:05:12.601Z,156.00
2019-05-22T09:06:12.552Z,164.00
2019-05-22T09:07:12.521Z,172.00
2019-05-22T09:08:12.545Z,176.00
2019-05-22T09:09:12.536Z,184.00
2019-05-22T09:10:12.521Z,192.00
2019-05-22T09:11:12.538Z,200.00
2019-05-22T09:12:12.516Z,208.00
2019-05-22T09:13:12.529Z,216.00
2019-05-22T09:14:12.501Z,224.00
2019-05-22T09:15:12.502Z,228.00
2019-05-22T09:16:12.516Z,232.00
2019-05-22T09:17:12.479Z,244.00
2019-05-22T09:18:12.528Z,260.00
2019-05-22T09:19:12.729Z,284.00
2019-05-22T09:20:12.466Z,308.00
2019-05-22T09:21:12.453Z,336.00
2019-05-22T09:22:12.487Z,372.00
2019-05-22T09:23:12.436Z,384.00
2019-05-22T09:24:12.434Z,356.00
2019-05-22T09:25:12.768Z,328.00
2019-05-22T09:26:12.442Z,312.00
2019-05-22T09:27:12.428Z,296.00
2019-05-22T09:28:12.419Z,272.00
2019-05-22T09:29:12.410Z,256.00
2019-05-22T09:30:12.399Z,240.00
2019-05-22T09:31:12.436Z,224.00
2019-05-22T09:32:12.380Z,212.00
2019-05-22T09:33:12.436Z,204.00
2019-05-22T09:34:12.368Z,192.00
2019-05-22T09:35:12.360Z,184.00
2019-05-22T09:36:12.345Z,180.00
2019-05-22T09:37:12.339Z,176.00
2019-05-22T09:38:12.350Z,176.00
2019-05-22T09:39:12.326Z,176.00
2019-05-22T09:40:12.318Z,184.00
2019-05-22T09:41:12.362Z,180.00
2019-05-22T09:42:12.309Z,176.00
2019-05-22T09:43:12.318Z,172.00
2019-05-22T09:44:15.283Z,164.00
2019-05-22T09:45:12.280Z,160.00
2019-05-22T09:46:12.269Z,160.00
2019-05-22T09:47:12.299Z,156.00
2019-05-22T09:48:12.257Z,152.00
2019-05-22T09:49:12.258Z,144.00
2019-05-22T09:50:12.248Z,140.00
2019-05-22T09:51:12.257Z,136.00
2019-05-22T09:52:12.232Z,128.00
2019-05-22T09:53:12.232Z,124.00
2019-05-22T09:54:12.225Z,124.00
2019-05-22T09:55:12.213Z,128.00
2019-05-22T09:56:12.204Z,128.00
2019-05-22T09:57:12.287Z,132.00
2019-05-22T09:58:12.188Z,136.00
2019-05-22T09:59:12.214Z,140.00
2019-05-22T10:00:12.182Z,144.00
2019-05-22T10:01:12.301Z,152.00
2019-05-22T10:02:12.157Z,160.00
2019-05-22T10:03:12.153Z,168.00
2019-05-22T10:04:12.143Z,172.00
2019-05-22T10:05:12.145Z,180.00
2019-05-22T10:06:12.129Z,184.00
2019-05-22T10:07:12.120Z,180.00
2019-05-22T10:08:12.254Z,180.00
2019-05-22T10:09:12.103Z,176.00
2019-05-22T10:10:12.120Z,172.00
2019-05-22T10:11:12.108Z,176.00
2019-05-22T10:12:12.094Z,176.00
2019-05-22T10:13:12.184Z,184.00
2019-05-22T10:14:12.081Z,192.00
2019-05-22T10:15:12.074Z,196.00
2019-05-22T10:16:12.102Z,200.00
2019-05-22T10:17:12.078Z,200.00
2019-05-22T10:18:12.059Z,204.00
2019-05-22T10:19:12.055Z,208.00
2019-05-22T10:20:12.051Z,204.00
2019-05-22T10:21:12.053Z,200.00
2019-05-22T10:22:12.034Z,196.00
2019-05-22T10:23:15.945Z,188.00
2019-05-22T10:24:12.030Z,180.00
2019-05-22T10:25:16.445Z,180.00
2019-05-22T10:26:13.020Z,176.00
2019-05-22T10:27:12.018Z,180.00
2019-05-22T10:28:12.020Z,180.00
2019-05-22T10:29:12.000Z,184.00
2019-05-22T10:30:11.979Z,188.00
2019-05-22T10:31:13.774Z,196.00
2019-05-22T10:32:11.970Z,200.00
2019-05-22T10:33:11.998Z,204.00
2019-05-22T10:34:11.949Z,208.00
2019-05-22T10:35:11.946Z,212.00
2019-05-22T10:36:11.934Z,212.00
2019-05-22T10:37:11.957Z,212.00
2019-05-22T10:38:11.926Z,216.00
2019-05-22T10:39:11.930Z,220.00
2019-05-22T10:40:11.901Z,224.00
2019-05-22T10:41:11.893Z,232.00
2019-05-22T10:42:11.894Z,236.00
2019-05-22T10:43:11.892Z,240.00
2019-05-22T10:44:11.888Z,244.00
2019-05-22T10:45:11.876Z,252.00
2019-05-22T10:46:11.960Z,264.00
2019-05-22T10:47:11.882Z,272.00
2019-05-22T10:48:11.961Z,276.00
2019-05-22T10:49:11.881Z,284.00
2019-05-22T10:50:11.883Z,292.00
2019-05-22T10:51:11.873Z,292.00
2019-05-22T10:52:11.868Z,292.00
2019-05-22T10:53:11.856Z,300.00
2019-05-22T10:54:11.880Z,304.00
2019-05-22T10:55:11.936Z,300.00
2019-05-22T10:56:11.869Z,296.00
2019-05-22T10:57:11.826Z,292.00
2019-05-22T10:58:11.819Z,292.00
2019-05-22T10:59:11.824Z,296.00
2019-05-22T11:00:11.801Z,300.00
2019-05-22T11:01:11.791Z,312.00
2019-05-22T11:02:11.794Z,332.00
2019-05-22T11:03:11.790Z,364.00
2019-05-22T11:04:11.787Z,364.00
2019-05-22T11:05:11.788Z,360.00
2019-05-22T11:06:11.770Z,356.00
2019-05-22T11:07:11.765Z,348.00
2019-05-22T11:08:11.753Z,340.00
2019-05-22T11:09:11.759Z,324.00
2019-05-22T11:10:11.749Z,324.00
2019-05-22T11:11:11.729Z,336.00
2019-05-22T11:12:11.740Z,412.00
2019-05-22T11:13:11.731Z,508.00
2019-05-22T11:14:11.744Z,412.00
2019-05-22T11:15:11.713Z,412.00
2019-05-22T11:16:11.712Z,392.00
2019-05-22T11:17:11.729Z,404.00
2019-05-22T11:18:11.689Z,580.00
2019-05-22T11:19:12.166Z,432.00
2019-05-22T11:20:11.710Z,416.00
2019-05-22T11:21:11.739Z,548.00
2019-05-22T11:22:11.675Z,452.00
2019-05-22T11:23:11.665Z,548.00
2019-05-22T11:24:11.657Z,492.00
2019-05-22T11:25:11.654Z,472.00
2019-05-22T11:26:11.673Z,456.00
2019-05-22T11:27:11.708Z,448.00
2019-05-22T11:28:11.640Z,472.00
2019-05-22T11:29:11.628Z,456.00
2019-05-22T11:30:11.662Z,436.00
2019-05-22T11:31:11.640Z,424.00
2019-05-22T11:32:11.630Z,416.00
2019-05-22T11:33:11.659Z,412.00
2019-05-22T11:34:11.621Z,408.00
2019-05-22T11:35:11.613Z,408.00
2019-05-22T11:36:11.596Z,412.00
2019-05-22T11:37:11.636Z,412.00
2019-05-22T11:38:11.610Z,508.00
2019-05-22T11:39:11.585Z,448.00
2019-05-22T11:40:11.603Z,536.00
2019-05-22T11:41:11.559Z,516.00
2019-05-22T11:42:11.547Z,468.00
2019-05-22T11:43:11.551Z,448.00
2019-05-22T11:44:11.595Z,436.00
2019-05-22T11:45:11.532Z,432.00
2019-05-22T11:46:11.516Z,528.00
2019-05-22T11:47:11.506Z,452.00
2019-05-22T11:48:11.552Z,512.00
2019-05-22T11:49:11.505Z,524.00
2019-05-22T11:50:11.490Z,536.00
2019-05-22T11:51:11.495Z,484.00
2019-05-22T11:52:11.487Z,472.00
2019-05-22T11:53:11.473Z,468.00
2019-05-22T11:54:11.548Z,480.00
2019-05-22T11:55:11.461Z,496.00
2019-05-22T11:56:11.456Z,460.00
2019-05-22T11:57:11.434Z,452.00
2019-05-22T11:58:11.462Z,440.00
2019-05-22T11:59:11.422Z,440.00
2019-05-22T12:00:11.423Z,436.00
2019-05-22T12:01:11.410Z,428.00
2019-05-22T12:02:11.419Z,424.00
2019-05-22T12:03:11.416Z,420.00
2019-05-22T12:04:11.465Z,416.00
2019-05-22T12:05:11.482Z,412.00
2019-05-22T12:06:11.406Z,408.00
2019-05-22T12:07:11.393Z,416.00
2019-05-22T12:08:11.377Z,424.00
2019-05-22T12:09:11.368Z,468.00
2019-05-22T12:10:11.372Z,424.00
2019-05-22T12:11:11.430Z,420.00
2019-05-22T12:12:11.363Z,408.00
2019-05-22T12:13:11.787Z,404.00
2019-05-22T12:14:11.401Z,392.00
2019-05-22T12:15:11.347Z,384.00
2019-05-22T12:16:11.362Z,372.00
2019-05-22T12:17:11.364Z,364.00
2019-05-22T12:18:11.322Z,376.00
2019-05-22T12:19:11.318Z,436.00
2019-05-22T12:20:11.341Z,432.00
2019-05-22T12:21:11.300Z,432.00
2019-05-22T12:22:11.297Z,412.00
2019-05-22T12:23:11.342Z,424.00
2019-05-22T12:24:26.016Z,408.00
2019-05-22T12:25:12.267Z,400.00
2019-05-22T12:26:11.276Z,400.00
2019-05-22T12:27:11.276Z,400.00
2019-05-22T12:28:11.242Z,396.00
2019-05-22T12:29:11.235Z,420.00
2019-05-22T12:30:11.274Z,472.00
2019-05-22T12:31:11.237Z,412.00
2019-05-22T12:32:11.213Z,396.00
2019-05-22T12:33:13.987Z,432.00
2019-05-22T12:34:11.198Z,380.00
2019-05-22T12:35:11.212Z,364.00
2019-05-22T12:36:11.207Z,352.00
2019-05-22T12:37:11.219Z,348.00
2019-05-22T12:38:11.246Z,348.00
2019-05-22T12:39:11.209Z,380.00
2019-05-22T12:40:11.191Z,372.00
2019-05-22T12:41:11.182Z,356.00
2019-05-22T12:42:11.191Z,400.00
2019-05-22T12:43:11.191Z,328.00
2019-05-22T12:44:11.182Z,304.00
2019-05-22T12:45:11.161Z,320.00
2019-05-22T12:46:11.151Z,392.00
2019-05-22T12:47:11.130Z,344.00
2019-05-22T12:48:11.148Z,356.00
2019-05-22T12:49:11.125Z,376.00
2019-05-22T12:50:11.155Z,416.00
2019-05-22T12:51:11.113Z,392.00